createdAt,value
2018-06-03T00:02:01.490Z,15.50
2018-06-03T00:04:29.056Z,15.40
2018-06-03T00:06:56.609Z,15.40
2018-06-03T00:09:24.165Z,15.40
2018-06-03T00:11:51.647Z,15.40
2018-06-03T00:14:19.897Z,15.40
2018-06-03T00:16:47.356Z,15.30
2018-06-03T00:19:15.634Z,15.30
2018-06-03T00:21:43.099Z,15.30
2018-06-03T00:24:10.589Z,15.30
2018-06-03T00:26:38.036Z,15.20
2018-06-03T00:29:06.285Z,15.20
2018-06-03T00:31:33.758Z,15.20
2018-06-03T00:34:01.220Z,15.30
2018-06-03T00:36:40.697Z,15.30
2018-06-03T00:39:08.145Z,15.20
2018-06-03T00:41:36.525Z,15.20
2018-06-03T00:44:03.980Z,15.10
2018-06-03T00:46:31.508Z,15.10
2018-06-03T00:48:58.960Z,15.10
2018-06-03T00:51:26.417Z,15.10
2018-06-03T00:53:53.876Z,15.00
2018-06-03T00:56:33.244Z,15.10
2018-06-03T00:59:01.480Z,15.10
2018-06-03T01:01:29.060Z,15.00
2018-06-03T01:03:56.524Z,15.00
2018-06-03T01:06:23.983Z,15.00
2018-06-03T01:08:51.516Z,14.90
2018-06-03T01:11:18.985Z,14.90
2018-06-03T01:13:46.453Z,14.90
2018-06-03T01:16:14.001Z,14.80
2018-06-03T01:18:41.561Z,14.80
2018-06-03T01:21:09.128Z,14.80
2018-06-03T01:23:37.392Z,14.70
2018-06-03T01:26:04.860Z,14.70
2018-06-03T01:28:32.318Z,14.70
2018-06-03T01:30:59.792Z,14.80
2018-06-03T01:33:28.041Z,14.80
2018-06-03T01:35:55.609Z,14.70
2018-06-03T01:38:23.164Z,14.70
2018-06-03T01:40:50.724Z,14.70
2018-06-03T01:43:18.185Z,14.70
2018-06-03T01:45:45.753Z,14.70
2018-06-03T01:48:14.025Z,14.60
2018-06-03T01:50:41.546Z,14.60
2018-06-03T01:53:09.038Z,14.60
2018-06-03T01:55:36.600Z,14.60
2018-06-03T01:58:04.056Z,14.50
2018-06-03T02:00:31.518Z,14.60
2018-06-03T02:02:58.977Z,14.50
2018-06-03T02:05:26.537Z,14.60
2018-06-03T02:07:54.092Z,14.50
2018-06-03T02:10:21.656Z,14.50
2018-06-03T02:12:49.117Z,14.40
2018-06-03T02:15:16.680Z,14.50
2018-06-03T02:17:44.237Z,14.40
2018-06-03T02:20:11.705Z,14.40
2018-06-03T02:22:39.253Z,14.40
2018-06-03T02:25:06.825Z,14.40
2018-06-03T02:27:34.376Z,14.40
2018-06-03T02:30:01.853Z,14.40
2018-06-03T02:32:30.088Z,14.30
2018-06-03T02:34:57.549Z,14.30
2018-06-03T02:37:25.009Z,14.30
2018-06-03T02:39:52.465Z,14.30
2018-06-03T02:42:19.921Z,14.30
2018-06-03T02:44:47.403Z,14.20
2018-06-03T02:47:14.965Z,14.20
2018-06-03T02:49:42.523Z,14.20
2018-06-03T02:52:09.981Z,14.20
2018-06-03T02:54:37.541Z,14.20
2018-06-03T02:57:05.063Z,14.20
2018-06-03T02:59:32.562Z,14.20
2018-06-03T03:02:00.043Z,14.10
2018-06-03T03:04:27.492Z,14.10
2018-06-03T03:06:54.957Z,14.10
2018-06-03T03:09:23.193Z,14.10
2018-06-03T03:11:50.644Z,14.00
2018-06-03T03:14:18.125Z,14.00
2018-06-03T03:16:45.590Z,14.00
2018-06-03T03:19:13.056Z,14.00
2018-06-03T03:21:41.325Z,13.90
2018-06-03T03:24:08.793Z,14.00
2018-06-03T03:26:36.332Z,14.00
2018-06-03T03:29:03.822Z,13.90
2018-06-03T03:31:32.049Z,13.90
2018-06-03T03:33:59.533Z,13.90
2018-06-03T03:36:27.151Z,13.90
2018-06-03T03:38:54.604Z,14.00
2018-06-03T03:41:22.067Z,14.00
2018-06-03T03:43:49.569Z,13.90
2018-06-03T03:46:17.128Z,14.00
2018-06-03T03:48:44.603Z,14.00
2018-06-03T03:51:12.869Z,14.00
2018-06-03T03:53:40.344Z,14.00
2018-06-03T03:56:08.584Z,14.10
2018-06-03T03:58:36.060Z,14.10
2018-06-03T04:01:03.617Z,14.10
2018-06-03T04:03:31.176Z,14.20
2018-06-03T04:05:58.656Z,14.20
2018-06-03T04:08:26.909Z,14.30
2018-06-03T04:10:54.375Z,14.30
2018-06-03T04:13:22.648Z,14.40
2018-06-03T04:15:50.208Z,14.40
2018-06-03T04:18:17.680Z,14.50
2018-06-03T04:20:45.140Z,14.60
2018-06-03T04:23:12.693Z,14.70
2018-06-03T04:25:40.253Z,14.80
2018-06-03T04:28:07.805Z,14.80
2018-06-03T04:30:35.262Z,14.90
2018-06-03T04:33:02.718Z,15.00
2018-06-03T04:35:30.180Z,15.10
2018-06-03T04:37:57.740Z,15.20
2018-06-03T04:40:25.300Z,15.20
2018-06-03T04:42:52.768Z,15.30
2018-06-03T04:45:20.317Z,15.40
2018-06-03T04:47:47.772Z,15.50
2018-06-03T04:50:15.337Z,15.60
2018-06-03T04:52:42.897Z,15.60
2018-06-03T04:55:10.372Z,15.70
2018-06-03T04:57:37.912Z,15.80
2018-06-03T05:00:05.477Z,15.90
2018-06-03T05:02:32.933Z,16.00
2018-06-03T05:05:00.501Z,16.10
2018-06-03T05:07:28.053Z,16.20
2018-06-03T05:09:55.517Z,16.40
2018-06-03T05:12:23.077Z,16.50
2018-06-03T05:14:50.528Z,16.60
2018-06-03T05:17:17.989Z,16.70
2018-06-03T05:19:45.444Z,16.80
2018-06-03T05:22:12.904Z,17.00
2018-06-03T05:24:40.469Z,17.10
2018-06-03T05:27:08.089Z,17.20
2018-06-03T05:29:35.647Z,17.30
2018-06-03T05:32:03.151Z,17.80
2018-06-03T05:34:30.612Z,18.90
2018-06-03T05:36:58.161Z,20.40
2018-06-03T05:39:25.621Z,21.90
2018-06-03T05:41:53.084Z,23.20
2018-06-03T05:44:20.592Z,24.00
2018-06-03T05:46:48.779Z,25.10
2018-06-03T05:49:16.273Z,25.10
2018-06-03T05:51:43.832Z,25.40
2018-06-03T05:54:11.398Z,25.80
2018-06-03T05:56:38.860Z,26.00
2018-06-03T05:59:07.124Z,25.80
2018-06-03T06:01:34.687Z,25.70
2018-06-03T06:04:02.143Z,25.50
2018-06-03T06:06:29.704Z,25.40
2018-06-03T06:08:57.274Z,24.80
2018-06-03T06:11:24.749Z,24.20
2018-06-03T06:13:53.005Z,23.10
2018-06-03T06:16:20.464Z,23.10
2018-06-03T06:18:48.029Z,22.70
2018-06-03T06:21:15.489Z,22.50
2018-06-03T06:23:43.040Z,22.10
2018-06-03T06:26:10.600Z,21.80
2018-06-03T06:28:38.121Z,21.90
2018-06-03T06:31:05.574Z,21.70
2018-06-03T06:33:33.031Z,21.80
2018-06-03T06:36:00.542Z,21.70
2018-06-03T06:38:28.011Z,21.70
2018-06-03T06:40:55.472Z,21.70
2018-06-03T06:43:23.730Z,21.60
2018-06-03T06:45:51.290Z,21.70
2018-06-03T06:48:18.752Z,21.60
2018-06-03T06:50:46.213Z,21.50
2018-06-03T06:53:13.680Z,21.60
2018-06-03T06:55:41.229Z,21.60
2018-06-03T06:58:08.797Z,21.70
2018-06-03T07:00:36.349Z,21.60
2018-06-03T07:03:03.905Z,21.60
2018-06-03T07:05:31.469Z,21.60
2018-06-03T07:07:58.932Z,21.70
2018-06-03T07:10:26.397Z,21.80
2018-06-03T07:12:53.861Z,21.80
2018-06-03T07:15:21.400Z,21.90
2018-06-03T07:17:48.865Z,22.00
2018-06-03T07:20:16.333Z,22.00
2018-06-03T07:22:43.885Z,22.10
2018-06-03T07:25:11.449Z,22.20
2018-06-03T07:27:39.009Z,22.20
2018-06-03T07:30:06.577Z,22.40
2018-06-03T07:32:34.040Z,22.60
2018-06-03T07:35:01.504Z,22.70
2018-06-03T07:38:00.566Z,22.90
2018-06-03T07:40:28.808Z,23.00
2018-06-03T07:42:56.997Z,23.00
2018-06-03T07:45:25.185Z,23.00
2018-06-03T07:47:53.398Z,23.20
2018-06-03T07:50:21.596Z,23.20
2018-06-03T07:52:49.773Z,23.40
2018-06-03T07:55:17.969Z,23.50
2018-06-03T07:57:46.150Z,23.60
2018-06-03T08:00:14.344Z,23.80
2018-06-03T08:02:42.540Z,23.90
2018-06-03T08:05:10.725Z,24.00
2018-06-03T08:07:38.915Z,24.00
2018-06-03T08:12:35.091Z,23.80
2018-06-03T08:15:03.273Z,24.00
2018-06-03T08:17:31.486Z,24.10
2018-06-03T08:19:59.757Z,24.10
2018-06-03T08:22:27.969Z,24.10
2018-06-03T08:24:56.185Z,24.10
2018-06-03T08:27:24.389Z,24.20
2018-06-03T08:29:52.594Z,24.30
2018-06-03T08:32:20.773Z,24.40
2018-06-03T08:34:49.000Z,24.40
2018-06-03T08:37:17.180Z,24.30
2018-06-03T08:39:45.369Z,24.30
2018-06-03T08:42:13.543Z,24.30
2018-06-03T08:44:41.730Z,24.40
2018-06-03T08:47:09.912Z,24.50
2018-06-03T08:49:38.228Z,24.50
2018-06-03T08:52:06.413Z,24.70
2018-06-03T08:54:34.623Z,24.80
2018-06-03T08:57:02.830Z,24.80
2018-06-03T08:59:31.033Z,24.80
2018-06-03T09:01:59.221Z,25.00
2018-06-03T09:04:27.417Z,25.10
2018-06-03T09:06:55.657Z,25.00
2018-06-03T09:09:23.793Z,25.10
2018-06-03T09:11:51.986Z,25.30
2018-06-03T09:14:20.178Z,25.40
2018-06-03T09:16:48.378Z,25.40
2018-06-03T09:19:16.586Z,25.60
2018-06-03T09:21:44.772Z,25.70
2018-06-03T09:24:13.001Z,25.60
2018-06-03T09:26:41.219Z,25.10
2018-06-03T09:29:09.396Z,24.90
2018-06-03T09:31:37.605Z,24.60
2018-06-03T09:34:05.813Z,24.70
2018-06-03T09:36:34.024Z,24.70
2018-06-03T09:39:02.217Z,25.00
2018-06-03T09:41:30.395Z,25.40
2018-06-03T09:43:58.582Z,25.70
2018-06-03T09:46:26.774Z,26.10
2018-06-03T09:48:54.957Z,26.10
2018-06-03T09:51:23.203Z,26.20
2018-06-03T09:53:51.394Z,26.40
2018-06-03T09:56:19.621Z,26.70
2018-06-03T09:58:47.810Z,26.80
2018-06-03T10:01:15.989Z,26.70
2018-06-03T10:03:44.191Z,26.50
2018-06-03T10:06:12.373Z,26.50
2018-06-03T10:08:40.629Z,26.60
2018-06-03T10:11:08.822Z,26.70
2018-06-03T10:13:37.042Z,26.70
2018-06-03T10:16:05.435Z,26.80
2018-06-03T10:18:33.617Z,27.10
2018-06-03T10:21:01.827Z,27.20
2018-06-03T10:23:30.041Z,27.20
2018-06-03T10:25:58.282Z,27.20
2018-06-03T10:28:26.493Z,27.30
2018-06-03T10:30:54.720Z,27.60
2018-06-03T10:33:22.909Z,27.60
2018-06-03T10:35:51.093Z,27.70
2018-06-03T10:38:19.301Z,28.00
2018-06-03T10:43:15.491Z,28.30
2018-06-03T10:45:43.672Z,28.50
2018-06-03T10:48:11.862Z,28.60
2018-06-03T10:50:40.041Z,28.60
2018-06-03T10:53:08.246Z,28.90
2018-06-03T10:55:36.437Z,28.80
2018-06-03T10:58:04.646Z,28.90
2018-06-03T11:00:32.857Z,29.10
2018-06-03T11:03:01.605Z,29.10
2018-06-03T11:05:30.191Z,29.10
2018-06-03T11:07:59.316Z,29.20
2018-06-03T11:10:27.513Z,29.10
2018-06-03T11:12:55.702Z,28.90
2018-06-03T11:15:23.898Z,28.40
2018-06-03T11:17:52.188Z,28.00
2018-06-03T11:20:20.468Z,27.40
2018-06-03T11:22:48.650Z,26.80
2018-06-03T11:25:16.833Z,26.40
2018-06-03T11:27:45.030Z,26.10
2018-06-03T11:30:13.274Z,25.70
2018-06-03T11:32:41.450Z,26.00
2018-06-03T11:35:09.650Z,26.30
2018-06-03T11:37:37.857Z,26.20
2018-06-03T11:42:34.024Z,25.60
2018-06-03T11:45:02.197Z,25.50
2018-06-03T11:47:30.379Z,25.50
2018-06-03T11:49:58.558Z,26.00
2018-06-03T11:52:26.776Z,26.50
2018-06-03T11:54:54.958Z,26.60
2018-06-03T11:57:27.999Z,26.90
2018-06-03T11:59:56.948Z,27.20
2018-06-03T12:02:25.136Z,27.20
2018-06-03T12:04:53.346Z,27.00
2018-06-03T12:07:21.566Z,26.70
2018-06-03T12:09:49.781Z,26.40
2018-06-03T12:12:18.007Z,26.30
2018-06-03T12:14:46.187Z,26.50
2018-06-03T12:17:14.365Z,26.90
2018-06-03T12:19:42.573Z,26.80
2018-06-03T12:24:38.701Z,26.80
2018-06-03T12:29:34.887Z,26.10
2018-06-03T12:32:03.083Z,25.80
2018-06-03T12:34:31.265Z,25.80
2018-06-03T12:36:59.447Z,26.00
2018-06-03T12:39:27.624Z,26.30
2018-06-03T12:41:55.858Z,26.30
2018-06-03T12:44:24.010Z,26.30
2018-06-03T12:46:52.203Z,26.70
2018-06-03T12:49:20.393Z,27.00
2018-06-03T12:51:48.582Z,27.20
2018-06-03T12:54:16.771Z,27.10
2018-06-03T12:56:44.999Z,26.90
2018-06-03T12:59:13.196Z,27.10
2018-06-03T13:01:42.831Z,27.40
2018-06-03T13:04:11.008Z,27.80
2018-06-03T13:06:39.197Z,28.00
2018-06-03T13:09:07.408Z,28.00
2018-06-03T13:11:35.585Z,27.60
2018-06-03T13:14:03.780Z,27.00
2018-06-03T13:16:31.993Z,26.70
2018-06-03T13:19:00.203Z,26.30
2018-06-03T13:21:28.394Z,26.30
2018-06-03T13:23:56.598Z,26.40
2018-06-03T13:26:24.794Z,26.40
2018-06-03T13:28:53.009Z,26.50
2018-06-03T13:31:21.202Z,26.60
2018-06-03T13:33:49.397Z,26.80
2018-06-03T13:36:17.581Z,27.10
2018-06-03T13:38:45.781Z,27.50
2018-06-03T13:41:13.962Z,27.80
2018-06-03T13:43:42.145Z,28.00
2018-06-03T13:46:10.321Z,27.80
2018-06-03T13:48:38.501Z,27.50
2018-06-03T13:51:06.700Z,27.20
2018-06-03T13:53:34.916Z,26.80
2018-06-03T13:56:03.167Z,26.90
2018-06-03T13:58:31.346Z,27.00
2018-06-03T14:00:59.533Z,27.10
2018-06-03T14:03:27.709Z,27.10
2018-06-03T14:05:55.893Z,27.20
2018-06-03T14:08:24.072Z,27.20
2018-06-03T14:10:52.256Z,27.20
2018-06-03T14:13:20.444Z,27.10
2018-06-03T14:18:16.573Z,26.60
2018-06-03T14:20:44.753Z,26.70
2018-06-03T14:23:12.941Z,26.60
2018-06-03T14:28:09.065Z,26.60
2018-06-03T14:30:37.252Z,26.50
2018-06-03T14:33:05.452Z,26.50
2018-06-03T14:38:01.627Z,26.30
2018-06-03T14:40:29.820Z,26.20
2018-06-03T14:42:57.992Z,26.00
2018-06-03T14:45:26.172Z,26.10
2018-06-03T14:47:54.356Z,26.10
2018-06-03T14:50:22.706Z,26.20
2018-06-03T14:55:18.824Z,26.40
2018-06-03T14:57:47.008Z,26.50
2018-06-03T15:00:15.178Z,26.60
2018-06-03T15:02:43.352Z,26.60
2018-06-03T15:05:11.536Z,26.70
2018-06-03T15:07:39.742Z,26.70
2018-06-03T15:10:07.930Z,26.80
2018-06-03T15:12:36.124Z,26.80
2018-06-03T15:15:04.457Z,26.90
2018-06-03T15:17:32.646Z,27.10
2018-06-03T15:20:00.849Z,27.20
2018-06-03T15:22:29.038Z,27.20
2018-06-03T15:24:57.270Z,27.20
2018-06-03T15:27:25.473Z,27.20
2018-06-03T15:29:53.650Z,27.20
2018-06-03T15:34:49.772Z,27.20
2018-06-03T15:37:17.968Z,27.00
2018-06-03T15:39:46.187Z,27.00
2018-06-03T15:42:14.404Z,26.90
2018-06-03T15:44:42.588Z,26.80
2018-06-03T15:47:10.772Z,26.80
2018-06-03T15:49:38.969Z,26.50
2018-06-03T15:52:07.349Z,26.50
2018-06-03T15:57:03.496Z,26.40
2018-06-03T16:01:59.683Z,26.30
2018-06-03T16:04:27.873Z,26.20
2018-06-03T16:06:56.074Z,26.30
2018-06-03T16:09:24.322Z,26.50
2018-06-03T16:11:52.528Z,26.70
2018-06-03T16:14:20.821Z,26.90
2018-06-03T16:16:48.985Z,27.10
2018-06-03T16:19:17.161Z,27.20
2018-06-03T16:21:45.352Z,27.40
2018-06-03T16:24:13.602Z,27.40
2018-06-03T16:26:41.737Z,27.10
2018-06-03T16:29:09.927Z,26.90
2018-06-03T16:31:38.124Z,26.70
2018-06-03T16:34:06.289Z,26.60
2018-06-03T16:36:34.497Z,26.60
2018-06-03T16:41:30.658Z,26.30
2018-06-03T16:43:58.959Z,26.30
2018-06-03T16:46:27.141Z,26.20
2018-06-03T16:48:55.334Z,26.00
2018-06-03T16:51:23.550Z,26.00
2018-06-03T16:53:51.749Z,25.80
2018-06-03T16:56:19.950Z,25.80
2018-06-03T16:58:48.138Z,25.70
2018-06-03T17:01:16.349Z,25.50
2018-06-03T17:06:12.632Z,25.40
2018-06-03T17:08:40.854Z,25.40
2018-06-03T17:11:09.056Z,25.40
2018-06-03T17:13:37.262Z,25.30
2018-06-03T17:16:05.678Z,25.30
2018-06-03T17:18:33.889Z,25.20
2018-06-03T17:23:30.057Z,25.30
2018-06-03T17:25:58.282Z,25.20
2018-06-03T17:28:26.486Z,25.20
2018-06-03T17:30:54.689Z,25.20
2018-06-03T17:33:22.899Z,25.10
2018-06-03T17:35:51.106Z,25.10
2018-06-03T17:38:19.328Z,25.10
2018-06-03T17:40:47.545Z,25.00
2018-06-03T17:45:43.906Z,24.90
2018-06-03T17:48:12.116Z,24.90
2018-06-03T17:50:40.313Z,24.90
2018-06-03T17:53:08.512Z,24.90
2018-06-03T17:55:36.712Z,24.90
2018-06-03T17:58:04.913Z,24.70
2018-06-03T18:00:33.120Z,24.70
2018-06-03T18:03:01.345Z,24.70
2018-06-03T18:05:29.592Z,24.60
2018-06-03T18:07:57.762Z,24.40
2018-06-03T18:10:25.971Z,24.30
2018-06-03T18:12:54.156Z,24.20
2018-06-03T18:15:22.345Z,24.20
2018-06-03T18:17:50.532Z,24.10
2018-06-03T18:20:18.721Z,24.00
2018-06-03T18:22:46.909Z,23.90
2018-06-03T18:25:15.133Z,23.80
2018-06-03T18:27:43.325Z,23.80
2018-06-03T18:30:11.509Z,23.70
2018-06-03T18:32:39.694Z,23.60
2018-06-03T18:35:07.890Z,23.50
2018-06-03T18:37:36.127Z,23.40
2018-06-03T18:40:04.437Z,23.40
2018-06-03T18:42:32.633Z,23.30
2018-06-03T18:45:01.354Z,23.30
2018-06-03T18:47:29.577Z,23.20
2018-06-03T18:49:57.841Z,23.10
2018-06-03T18:52:26.045Z,23.00
2018-06-03T18:54:54.247Z,22.90
2018-06-03T18:57:22.541Z,22.80
2018-06-03T18:59:50.746Z,22.70
2018-06-03T19:02:18.946Z,22.60
2018-06-03T19:04:47.141Z,22.60
2018-06-03T19:09:43.386Z,22.40
2018-06-03T19:14:39.545Z,22.30
2018-06-03T19:17:07.750Z,22.20
2018-06-03T19:19:35.938Z,22.10
2018-06-03T19:22:04.241Z,22.00
2018-06-03T19:24:32.471Z,21.80
2018-06-03T19:27:00.669Z,21.80
2018-06-03T19:29:28.879Z,21.70
2018-06-03T19:34:25.052Z,21.50
2018-06-03T19:36:53.233Z,21.40
2018-06-03T19:39:21.417Z,21.30
2018-06-03T19:41:49.687Z,21.20
2018-06-03T19:44:17.869Z,21.10
2018-06-03T19:46:46.061Z,21.00
2018-06-03T19:49:14.245Z,20.90
2018-06-03T19:51:42.436Z,20.80
2018-06-03T19:54:10.632Z,20.80
2018-06-03T19:56:38.808Z,20.70
2018-06-03T19:59:07.004Z,20.60
2018-06-03T20:01:35.198Z,20.60
2018-06-03T20:04:03.409Z,20.40
2018-06-03T20:06:31.597Z,20.40
2018-06-03T20:08:59.824Z,20.30
2018-06-03T20:11:28.037Z,20.20
2018-06-03T20:13:56.253Z,20.10
2018-06-03T20:16:24.445Z,20.10
2018-06-03T20:18:52.633Z,20.00
2018-06-03T20:21:20.817Z,19.80
2018-06-03T20:23:49.012Z,19.70
2018-06-03T20:26:17.206Z,19.60
2018-06-03T20:28:45.422Z,19.50
2018-06-03T20:31:13.701Z,19.40
2018-06-03T20:33:41.885Z,19.30
2018-06-03T20:36:10.120Z,19.10
2018-06-03T20:38:38.285Z,19.10
2018-06-03T20:41:06.662Z,19.00
2018-06-03T20:43:34.880Z,19.00
2018-06-03T20:46:03.069Z,18.90
2018-06-03T20:48:31.269Z,18.80
2018-06-03T20:50:59.464Z,18.80
2018-06-03T20:53:27.711Z,18.70
2018-06-03T20:55:55.915Z,18.50
2018-06-03T20:58:24.105Z,18.50
2018-06-03T21:00:52.317Z,18.40
2018-06-03T21:03:20.520Z,18.40
2018-06-03T21:05:48.722Z,18.30
2018-06-03T21:08:16.942Z,18.30
2018-06-03T21:10:45.137Z,18.20
2018-06-03T21:13:13.362Z,18.10
2018-06-03T21:15:41.541Z,18.00
2018-06-03T21:20:37.702Z,17.90
2018-06-03T21:23:06.036Z,17.90
2018-06-03T21:25:34.248Z,17.80
2018-06-03T21:28:02.440Z,17.80
2018-06-03T21:30:30.632Z,17.80
2018-06-03T21:32:58.813Z,17.80
2018-06-03T21:35:27.032Z,17.70
2018-06-03T21:37:55.233Z,17.70
2018-06-03T21:42:51.438Z,17.50
2018-06-03T21:45:19.622Z,17.50
2018-06-03T21:47:47.809Z,17.50
2018-06-03T21:52:43.978Z,17.30
2018-06-03T21:55:12.169Z,17.20
2018-06-03T21:57:40.357Z,17.10
2018-06-03T22:00:08.568Z,17.10
2018-06-03T22:02:36.741Z,17.00
2018-06-03T22:05:04.933Z,17.00
2018-06-03T22:07:33.137Z,17.00
2018-06-03T22:10:01.407Z,16.90
2018-06-03T22:12:29.596Z,16.90
2018-06-03T22:14:57.797Z,16.90
2018-06-03T22:17:25.977Z,16.90
2018-06-03T22:19:54.168Z,16.90
2018-06-03T22:22:22.374Z,16.90
2018-06-03T22:24:50.574Z,16.80
2018-06-03T22:27:18.817Z,16.70
2018-06-03T22:29:46.984Z,16.60
2018-06-03T22:32:15.184Z,16.50
2018-06-03T22:34:43.373Z,16.50
2018-06-03T22:37:11.593Z,16.40
2018-06-03T22:39:39.788Z,16.40
2018-06-03T22:42:08.014Z,16.40
2018-06-03T22:44:36.242Z,16.40
2018-06-03T22:47:04.445Z,16.30
2018-06-03T22:49:32.636Z,16.30
2018-06-03T22:52:00.824Z,16.30
2018-06-03T22:54:29.000Z,16.30
2018-06-03T22:58:04.782Z,16.20
2018-06-03T23:00:33.699Z,16.20
2018-06-03T23:03:07.349Z,16.20
2018-06-03T23:05:35.882Z,16.10
2018-06-03T23:08:04.183Z,16.10
2018-06-03T23:10:32.364Z,16.00
2018-06-03T23:13:00.545Z,15.90
2018-06-03T23:15:28.717Z,15.80
2018-06-03T23:17:57.133Z,15.70
2018-06-03T23:20:25.328Z,15.70
2018-06-03T23:22:53.517Z,15.70
2018-06-03T23:25:21.723Z,15.60
2018-06-03T23:27:49.965Z,15.60
2018-06-03T23:32:46.274Z,15.50
2018-06-03T23:35:14.522Z,15.50
2018-06-03T23:37:42.715Z,15.50
2018-06-03T23:40:10.898Z,15.40
2018-06-03T23:42:39.092Z,15.40
2018-06-03T23:45:07.310Z,15.40
2018-06-03T23:47:35.486Z,15.40
2018-06-03T23:50:03.675Z,15.40
2018-06-03T23:52:31.864Z,15.30
2018-06-03T23:55:00.047Z,15.30
2018-06-03T23:57:28.265Z,15.20
2018-06-03T23:59:56.452Z,15.20
